sensor_id;sensor_type;location;lat;lon;timestamp;P1;durP1;ratioP1;P2;durP2;ratioP2
16181;SDS011;8197;51.664;7.114;2024-01-16T00:03:15;20.10;;;3.50;;
16181;SDS011;8197;51.664;7.114;2024-01-16T00:08:20;19.47;;;4.90;;
16181;SDS011;8197;51.664;7.114;2024-01-16T00:13:22;21.00;;;4.20;;
16181;SDS011;8197;51.664;7.114;2024-01-16T00:18:25;18.33;;;5.10;;
16181;SDS011;8197;51.664;7.114;2024-01-16T00:23:30;21.93;;;4.97;;
16181;SDS011;8197;51.664;7.114;2024-01-16T00:28:34;20.30;;;4.50;;
16181;SDS011;8197;51.664;7.114;2024-01-16T00:33:37;20.67;;;4.10;;
16181;SDS011;8197;51.664;7.114;2024-01-16T00:38:42;20.97;;;4.10;;
16181;SDS011;8197;51.664;7.114;2024-01-16T00:43:46;17.77;;;3.60;;
16181;SDS011;8197;51.664;7.114;2024-01-16T00:48:49;19.27;;;3.30;;
16181;SDS011;8197;51.664;7.114;2024-01-16T00:53:53;19.07;;;2.97;;
16181;SDS011;8197;51.664;7.114;2024-01-16T00:58:56;18.20;;;3.40;;
16181;SDS011;8197;51.664;7.114;2024-01-16T01:03:59;19.03;;;3.40;;
16181;SDS011;8197;51.664;7.114;2024-01-16T01:09:03;18.80;;;3.23;;
16181;SDS011;8197;51.664;7.114;2024-01-16T01:14:06;15.47;;;3.10;;
16181;SDS011;8197;51.664;7.114;2024-01-16T01:19:09;23.27;;;3.90;;
16181;SDS011;8197;51.664;7.114;2024-01-16T01:24:15;17.77;;;4.07;;
16181;SDS011;8197;51.664;7.114;2024-01-16T01:29:18;17.03;;;3.50;;
16181;SDS011;8197;51.664;7.114;2024-01-16T01:34:21;17.53;;;3.83;;
16181;SDS011;8197;51.664;7.114;2024-01-16T01:39:25;19.07;;;4.30;;
16181;SDS011;8197;51.664;7.114;2024-01-16T01:44:28;19.50;;;3.97;;
16181;SDS011;8197;51.664;7.114;2024-01-16T01:49:31;20.60;;;3.17;;
16181;SDS011;8197;51.664;7.114;2024-01-16T01:54:35;17.10;;;2.73;;
16181;SDS011;8197;51.664;7.114;2024-01-16T01:59:39;13.70;;;2.50;;
16181;SDS011;8197;51.664;7.114;2024-01-16T02:04:42;16.40;;;3.13;;
16181;SDS011;8197;51.664;7.114;2024-01-16T02:09:49;20.53;;;3.37;;
16181;SDS011;8197;51.664;7.114;2024-01-16T02:14:52;17.00;;;2.90;;
16181;SDS011;8197;51.664;7.114;2024-01-16T02:19:55;13.80;;;2.37;;
16181;SDS011;8197;51.664;7.114;2024-01-16T02:24:59;17.40;;;3.30;;
16181;SDS011;8197;51.664;7.114;2024-01-16T02:30:02;16.23;;;3.00;;
16181;SDS011;8197;51.664;7.114;2024-01-16T02:35:07;18.17;;;3.10;;
16181;SDS011;8197;51.664;7.114;2024-01-16T02:40:12;25.30;;;3.37;;
16181;SDS011;8197;51.664;7.114;2024-01-16T02:45:15;17.07;;;2.60;;
16181;SDS011;8197;51.664;7.114;2024-01-16T02:50:18;17.57;;;3.03;;
16181;SDS011;8197;51.664;7.114;2024-01-16T02:55:23;17.83;;;2.73;;
16181;SDS011;8197;51.664;7.114;2024-01-16T03:00:26;24.10;;;3.40;;
16181;SDS011;8197;51.664;7.114;2024-01-16T03:05:29;16.80;;;3.27;;
16181;SDS011;8197;51.664;7.114;2024-01-16T03:10:33;17.33;;;3.10;;
16181;SDS011;8197;51.664;7.114;2024-01-16T03:15:36;20.17;;;2.63;;
16181;SDS011;8197;51.664;7.114;2024-01-16T03:20:39;14.30;;;2.70;;
16181;SDS011;8197;51.664;7.114;2024-01-16T03:25:43;19.87;;;3.20;;
16181;SDS011;8197;51.664;7.114;2024-01-16T03:30:46;17.80;;;2.90;;
16181;SDS011;8197;51.664;7.114;2024-01-16T03:35:49;15.77;;;2.93;;
16181;SDS011;8197;51.664;7.114;2024-01-16T03:40:53;16.60;;;3.50;;
16181;SDS011;8197;51.664;7.114;2024-01-16T03:45:56;14.73;;;3.40;;
16181;SDS011;8197;51.664;7.114;2024-01-16T03:50:59;19.30;;;4.60;;
16181;SDS011;8197;51.664;7.114;2024-01-16T03:56:05;21.30;;;3.80;;
16181;SDS011;8197;51.664;7.114;2024-01-16T04:01:09;17.10;;;3.23;;
16181;SDS011;8197;51.664;7.114;2024-01-16T04:06:15;20.83;;;4.80;;
16181;SDS011;8197;51.664;7.114;2024-01-16T04:11:20;21.60;;;3.80;;
16181;SDS011;8197;51.664;7.114;2024-01-16T04:16:23;16.80;;;3.77;;
16181;SDS011;8197;51.664;7.114;2024-01-16T04:21:26;18.03;;;4.47;;
16181;SDS011;8197;51.664;7.114;2024-01-16T04:26:30;17.10;;;4.20;;
16181;SDS011;8197;51.664;7.114;2024-01-16T04:31:35;18.80;;;4.40;;
16181;SDS011;8197;51.664;7.114;2024-01-16T04:36:41;19.60;;;3.83;;
16181;SDS011;8197;51.664;7.114;2024-01-16T04:41:46;15.87;;;3.57;;
16181;SDS011;8197;51.664;7.114;2024-01-16T04:46:49;18.77;;;4.07;;
16181;SDS011;8197;51.664;7.114;2024-01-16T04:51:51;18.40;;;4.50;;
16181;SDS011;8197;51.664;7.114;2024-01-16T04:56:56;23.47;;;4.30;;
16181;SDS011;8197;51.664;7.114;2024-01-16T05:02:00;15.97;;;4.00;;
16181;SDS011;8197;51.664;7.114;2024-01-16T05:07:03;17.53;;;4.00;;
16181;SDS011;8197;51.664;7.114;2024-01-16T05:12:07;19.13;;;4.47;;
16181;SDS011;8197;51.664;7.114;2024-01-16T05:17:10;16.50;;;3.90;;
16181;SDS011;8197;51.664;7.114;2024-01-16T05:22:13;16.80;;;3.77;;
16181;SDS011;8197;51.664;7.114;2024-01-16T05:27:18;21.17;;;3.90;;
16181;SDS011;8197;51.664;7.114;2024-01-16T05:32:20;19.00;;;3.90;;
16181;SDS011;8197;51.664;7.114;2024-01-16T05:37:23;18.83;;;3.57;;
16181;SDS011;8197;51.664;7.114;2024-01-16T05:42:28;18.23;;;4.27;;
16181;SDS011;8197;51.664;7.114;2024-01-16T05:47:30;17.70;;;3.53;;
16181;SDS011;8197;51.664;7.114;2024-01-16T05:52:33;20.93;;;3.93;;
16181;SDS011;8197;51.664;7.114;2024-01-16T05:57:39;19.70;;;3.73;;
16181;SDS011;8197;51.664;7.114;2024-01-16T06:02:42;17.30;;;3.07;;
16181;SDS011;8197;51.664;7.114;2024-01-16T06:07:45;16.83;;;2.90;;
16181;SDS011;8197;51.664;7.114;2024-01-16T06:12:49;17.50;;;2.47;;
16181;SDS011;8197;51.664;7.114;2024-01-16T06:17:52;18.20;;;2.93;;
16181;SDS011;8197;51.664;7.114;2024-01-16T06:22:55;19.90;;;3.00;;
16181;SDS011;8197;51.664;7.114;2024-01-16T06:27:59;18.73;;;3.20;;
16181;SDS011;8197;51.664;7.114;2024-01-16T06:33:04;15.43;;;2.70;;
16181;SDS011;8197;51.664;7.114;2024-01-16T06:38:07;16.93;;;3.37;;
16181;SDS011;8197;51.664;7.114;2024-01-16T06:43:12;15.67;;;3.00;;
16181;SDS011;8197;51.664;7.114;2024-01-16T06:48:17;22.30;;;3.90;;
16181;SDS011;8197;51.664;7.114;2024-01-16T06:53:20;15.83;;;3.33;;
16181;SDS011;8197;51.664;7.114;2024-01-16T06:58:24;16.17;;;3.70;;
16181;SDS011;8197;51.664;7.114;2024-01-16T07:03:27;23.07;;;4.30;;
16181;SDS011;8197;51.664;7.114;2024-01-16T07:08:30;21.27;;;4.57;;
16181;SDS011;8197;51.664;7.114;2024-01-16T07:13:34;24.70;;;6.30;;
16181;SDS011;8197;51.664;7.114;2024-01-16T07:18:37;25.73;;;6.90;;
16181;SDS011;8197;51.664;7.114;2024-01-16T07:23:43;22.07;;;6.70;;
16181;SDS011;8197;51.664;7.114;2024-01-16T07:28:47;29.37;;;9.10;;
16181;SDS011;8197;51.664;7.114;2024-01-16T07:33:50;21.50;;;6.87;;
16181;SDS011;8197;51.664;7.114;2024-01-16T07:38:53;23.27;;;7.83;;
16181;SDS011;8197;51.664;7.114;2024-01-16T07:43:57;24.93;;;7.30;;
16181;SDS011;8197;51.664;7.114;2024-01-16T07:49:00;22.77;;;7.77;;
16181;SDS011;8197;51.664;7.114;2024-01-16T07:54:07;38.07;;;9.57;;
16181;SDS011;8197;51.664;7.114;2024-01-16T07:59:12;25.47;;;7.80;;
16181;SDS011;8197;51.664;7.114;2024-01-16T08:04:16;28.77;;;9.17;;
16181;SDS011;8197;51.664;7.114;2024-01-16T08:09:19;27.13;;;6.60;;
16181;SDS011;8197;51.664;7.114;2024-01-16T08:14:23;24.97;;;6.83;;
16181;SDS011;8197;51.664;7.114;2024-01-16T08:19:26;18.80;;;5.60;;
16181;SDS011;8197;51.664;7.114;2024-01-16T08:24:29;18.60;;;4.70;;
16181;SDS011;8197;51.664;7.114;2024-01-16T08:29:34;21.07;;;5.00;;
16181;SDS011;8197;51.664;7.114;2024-01-16T08:34:37;23.63;;;5.30;;
16181;SDS011;8197;51.664;7.114;2024-01-16T08:39:40;27.70;;;5.03;;
16181;SDS011;8197;51.664;7.114;2024-01-16T08:44:45;21.60;;;5.30;;
16181;SDS011;8197;51.664;7.114;2024-01-16T08:49:48;20.37;;;4.70;;
16181;SDS011;8197;51.664;7.114;2024-01-16T08:54:51;21.90;;;4.50;;
16181;SDS011;8197;51.664;7.114;2024-01-16T08:59:56;27.77;;;5.17;;
16181;SDS011;8197;51.664;7.114;2024-01-16T09:04:59;27.13;;;5.70;;
16181;SDS011;8197;51.664;7.114;2024-01-16T09:10:02;24.30;;;5.30;;
16181;SDS011;8197;51.664;7.114;2024-01-16T09:15:08;24.90;;;5.00;;
16181;SDS011;8197;51.664;7.114;2024-01-16T09:20:11;22.03;;;4.13;;
16181;SDS011;8197;51.664;7.114;2024-01-16T09:25:14;23.43;;;4.83;;
16181;SDS011;8197;51.664;7.114;2024-01-16T09:30:19;23.20;;;4.80;;
16181;SDS011;8197;51.664;7.114;2024-01-16T09:35:23;23.80;;;4.70;;
16181;SDS011;8197;51.664;7.114;2024-01-16T09:40:26;25.60;;;3.50;;
16181;SDS011;8197;51.664;7.114;2024-01-16T09:45:31;23.40;;;3.60;;
16181;SDS011;8197;51.664;7.114;2024-01-16T09:50:35;18.73;;;3.37;;
16181;SDS011;8197;51.664;7.114;2024-01-16T09:55:38;23.00;;;3.63;;
16181;SDS011;8197;51.664;7.114;2024-01-16T10:00:43;22.00;;;3.80;;
16181;SDS011;8197;51.664;7.114;2024-01-16T10:05:46;22.10;;;3.77;;
16181;SDS011;8197;51.664;7.114;2024-01-16T10:10:50;25.50;;;4.07;;
16181;SDS011;8197;51.664;7.114;2024-01-16T10:15:55;22.47;;;3.33;;
16181;SDS011;8197;51.664;7.114;2024-01-16T10:20:59;19.50;;;3.20;;
16181;SDS011;8197;51.664;7.114;2024-01-16T10:26:05;18.60;;;3.63;;
16181;SDS011;8197;51.664;7.114;2024-01-16T10:31:10;19.90;;;3.53;;
16181;SDS011;8197;51.664;7.114;2024-01-16T10:36:15;19.13;;;3.27;;
16181;SDS011;8197;51.664;7.114;2024-01-16T10:41:21;18.17;;;3.50;;
16181;SDS011;8197;51.664;7.114;2024-01-16T10:46:27;17.70;;;3.23;;
16181;SDS011;8197;51.664;7.114;2024-01-16T10:51:30;21.13;;;4.40;;
16181;SDS011;8197;51.664;7.114;2024-01-16T10:56:34;21.10;;;3.00;;
16181;SDS011;8197;51.664;7.114;2024-01-16T11:01:39;24.40;;;3.60;;
16181;SDS011;8197;51.664;7.114;2024-01-16T11:06:45;20.50;;;3.63;;
16181;SDS011;8197;51.664;7.114;2024-01-16T11:11:50;18.97;;;3.67;;
16181;SDS011;8197;51.664;7.114;2024-01-16T11:16:57;18.37;;;3.40;;
16181;SDS011;8197;51.664;7.114;2024-01-16T11:22:02;21.77;;;3.43;;
16181;SDS011;8197;51.664;7.114;2024-01-16T11:27:06;17.40;;;3.00;;
16181;SDS011;8197;51.664;7.114;2024-01-16T11:32:10;23.00;;;3.30;;
16181;SDS011;8197;51.664;7.114;2024-01-16T11:37:40;19.50;;;3.77;;
16181;SDS011;8197;51.664;7.114;2024-01-16T11:42:44;18.03;;;3.10;;
16181;SDS011;8197;51.664;7.114;2024-01-16T11:47:48;23.77;;;3.20;;
16181;SDS011;8197;51.664;7.114;2024-01-16T11:53:10;21.20;;;3.17;;
16181;SDS011;8197;51.664;7.114;2024-01-16T11:58:35;19.70;;;3.23;;
16181;SDS011;8197;51.664;7.114;2024-01-16T12:04:02;20.30;;;3.83;;
16181;SDS011;8197;51.664;7.114;2024-01-16T12:09:12;18.57;;;3.30;;
16181;SDS011;8197;51.664;7.114;2024-01-16T12:14:15;18.93;;;3.77;;
16181;SDS011;8197;51.664;7.114;2024-01-16T12:19:19;22.10;;;3.60;;
16181;SDS011;8197;51.664;7.114;2024-01-16T12:24:22;20.97;;;4.00;;
16181;SDS011;8197;51.664;7.114;2024-01-16T12:29:25;20.03;;;3.60;;
16181;SDS011;8197;51.664;7.114;2024-01-16T12:34:29;19.97;;;4.00;;
16181;SDS011;8197;51.664;7.114;2024-01-16T12:39:32;20.67;;;3.20;;
16181;SDS011;8197;51.664;7.114;2024-01-16T12:44:36;18.70;;;3.30;;
16181;SDS011;8197;51.664;7.114;2024-01-16T12:49:41;19.60;;;4.00;;
16181;SDS011;8197;51.664;7.114;2024-01-16T12:54:45;17.70;;;3.40;;
16181;SDS011;8197;51.664;7.114;2024-01-16T12:59:48;24.00;;;4.00;;
16181;SDS011;8197;51.664;7.114;2024-01-16T13:04:57;16.70;;;3.10;;
16181;SDS011;8197;51.664;7.114;2024-01-16T13:10:08;23.57;;;3.23;;
16181;SDS011;8197;51.664;7.114;2024-01-16T13:15:13;22.27;;;3.93;;
16181;SDS011;8197;51.664;7.114;2024-01-16T13:20:19;19.43;;;3.50;;
16181;SDS011;8197;51.664;7.114;2024-01-16T13:25:22;22.40;;;3.00;;
16181;SDS011;8197;51.664;7.114;2024-01-16T13:30:25;19.17;;;4.10;;
16181;SDS011;8197;51.664;7.114;2024-01-16T13:35:45;19.37;;;3.90;;
16181;SDS011;8197;51.664;7.114;2024-01-16T13:40:49;27.40;;;4.10;;
16181;SDS011;8197;51.664;7.114;2024-01-16T13:45:52;22.43;;;3.80;;
16181;SDS011;8197;51.664;7.114;2024-01-16T13:50:57;21.60;;;4.30;;
16181;SDS011;8197;51.664;7.114;2024-01-16T13:56:00;20.77;;;3.20;;
16181;SDS011;8197;51.664;7.114;2024-01-16T14:01:03;16.40;;;2.67;;
16181;SDS011;8197;51.664;7.114;2024-01-16T14:06:07;26.40;;;4.37;;
16181;SDS011;8197;51.664;7.114;2024-01-16T14:11:11;22.80;;;4.37;;
16181;SDS011;8197;51.664;7.114;2024-01-16T14:16:14;15.50;;;3.00;;
16181;SDS011;8197;51.664;7.114;2024-01-16T14:21:38;18.60;;;3.77;;
16181;SDS011;8197;51.664;7.114;2024-01-16T14:26:41;17.60;;;3.40;;
16181;SDS011;8197;51.664;7.114;2024-01-16T14:31:46;19.07;;;3.70;;
16181;SDS011;8197;51.664;7.114;2024-01-16T14:36:52;23.80;;;3.47;;
16181;SDS011;8197;51.664;7.114;2024-01-16T14:41:55;23.37;;;4.57;;
16181;SDS011;8197;51.664;7.114;2024-01-16T14:46:59;26.50;;;3.60;;
16181;SDS011;8197;51.664;7.114;2024-01-16T14:52:04;19.73;;;4.23;;
16181;SDS011;8197;51.664;7.114;2024-01-16T14:57:08;25.03;;;5.60;;
16181;SDS011;8197;51.664;7.114;2024-01-16T15:02:13;22.37;;;4.60;;
16181;SDS011;8197;51.664;7.114;2024-01-16T15:07:18;24.00;;;4.50;;
16181;SDS011;8197;51.664;7.114;2024-01-16T15:12:21;24.17;;;5.17;;
16181;SDS011;8197;51.664;7.114;2024-01-16T15:17:24;21.83;;;5.23;;
16181;SDS011;8197;51.664;7.114;2024-01-16T15:22:30;20.37;;;3.67;;
16181;SDS011;8197;51.664;7.114;2024-01-16T15:27:33;21.27;;;4.53;;
16181;SDS011;8197;51.664;7.114;2024-01-16T15:32:37;19.77;;;3.80;;
16181;SDS011;8197;51.664;7.114;2024-01-16T15:37:42;21.30;;;4.47;;
16181;SDS011;8197;51.664;7.114;2024-01-16T15:42:45;21.63;;;4.37;;
16181;SDS011;8197;51.664;7.114;2024-01-16T15:47:48;20.80;;;4.27;;
16181;SDS011;8197;51.664;7.114;2024-01-16T15:52:52;26.73;;;5.10;;
16181;SDS011;8197;51.664;7.114;2024-01-16T15:57:55;24.20;;;4.50;;
16181;SDS011;8197;51.664;7.114;2024-01-16T16:02:58;21.47;;;3.67;;
16181;SDS011;8197;51.664;7.114;2024-01-16T16:08:03;25.90;;;4.40;;
16181;SDS011;8197;51.664;7.114;2024-01-16T16:13:06;20.67;;;4.50;;
16181;SDS011;8197;51.664;7.114;2024-01-16T16:18:10;19.83;;;4.83;;
16181;SDS011;8197;51.664;7.114;2024-01-16T16:23:14;23.07;;;6.40;;
16181;SDS011;8197;51.664;7.114;2024-01-16T16:28:17;26.23;;;6.20;;
16181;SDS011;8197;51.664;7.114;2024-01-16T16:33:20;23.30;;;6.37;;
16181;SDS011;8197;51.664;7.114;2024-01-16T16:38:24;21.13;;;5.13;;
16181;SDS011;8197;51.664;7.114;2024-01-16T16:43:28;23.80;;;5.40;;
16181;SDS011;8197;51.664;7.114;2024-01-16T16:48:30;28.43;;;6.73;;
16181;SDS011;8197;51.664;7.114;2024-01-16T16:53:35;34.93;;;8.63;;
16181;SDS011;8197;51.664;7.114;2024-01-16T16:58:45;27.47;;;7.90;;
16181;SDS011;8197;51.664;7.114;2024-01-16T17:03:49;29.13;;;6.80;;
16181;SDS011;8197;51.664;7.114;2024-01-16T17:08:55;29.47;;;7.80;;
16181;SDS011;8197;51.664;7.114;2024-01-16T17:13:58;20.20;;;5.80;;
16181;SDS011;8197;51.664;7.114;2024-01-16T17:19:01;26.00;;;6.40;;
16181;SDS011;8197;51.664;7.114;2024-01-16T17:24:06;27.20;;;5.40;;
16181;SDS011;8197;51.664;7.114;2024-01-16T17:29:09;25.40;;;5.13;;
16181;SDS011;8197;51.664;7.114;2024-01-16T17:34:12;23.93;;;4.87;;
16181;SDS011;8197;51.664;7.114;2024-01-16T17:39:17;27.60;;;5.30;;
16181;SDS011;8197;51.664;7.114;2024-01-16T17:44:22;22.00;;;5.60;;
16181;SDS011;8197;51.664;7.114;2024-01-16T17:49:25;24.73;;;6.43;;
16181;SDS011;8197;51.664;7.114;2024-01-16T17:54:30;25.93;;;5.57;;
16181;SDS011;8197;51.664;7.114;2024-01-16T17:59:33;29.90;;;6.50;;
16181;SDS011;8197;51.664;7.114;2024-01-16T18:04:37;22.30;;;5.40;;
16181;SDS011;8197;51.664;7.114;2024-01-16T18:09:41;20.33;;;4.70;;
16181;SDS011;8197;51.664;7.114;2024-01-16T18:14:48;23.80;;;5.17;;
16181;SDS011;8197;51.664;7.114;2024-01-16T18:19:51;27.40;;;7.90;;
16181;SDS011;8197;51.664;7.114;2024-01-16T18:24:55;23.83;;;6.50;;
16181;SDS011;8197;51.664;7.114;2024-01-16T18:29:58;25.87;;;7.57;;
16181;SDS011;8197;51.664;7.114;2024-01-16T18:35:02;29.80;;;7.17;;
16181;SDS011;8197;51.664;7.114;2024-01-16T18:40:09;29.23;;;7.40;;
16181;SDS011;8197;51.664;7.114;2024-01-16T18:45:15;29.93;;;8.20;;
16181;SDS011;8197;51.664;7.114;2024-01-16T18:50:19;25.77;;;7.97;;
16181;SDS011;8197;51.664;7.114;2024-01-16T18:55:23;32.60;;;8.57;;
16181;SDS011;8197;51.664;7.114;2024-01-16T19:00:26;27.13;;;7.90;;
16181;SDS011;8197;51.664;7.114;2024-01-16T19:05:29;28.13;;;9.23;;
16181;SDS011;8197;51.664;7.114;2024-01-16T19:10:37;31.67;;;9.00;;
16181;SDS011;8197;51.664;7.114;2024-01-16T19:15:39;29.13;;;7.27;;
16181;SDS011;8197;51.664;7.114;2024-01-16T19:20:42;26.13;;;7.63;;
16181;SDS011;8197;51.664;7.114;2024-01-16T19:25:47;22.57;;;7.00;;
16181;SDS011;8197;51.664;7.114;2024-01-16T19:30:49;29.50;;;7.13;;
16181;SDS011;8197;51.664;7.114;2024-01-16T19:35:54;29.13;;;7.03;;
16181;SDS011;8197;51.664;7.114;2024-01-16T19:41:01;27.50;;;6.73;;
16181;SDS011;8197;51.664;7.114;2024-01-16T19:46:04;27.00;;;7.70;;
16181;SDS011;8197;51.664;7.114;2024-01-16T19:51:07;35.33;;;9.13;;
16181;SDS011;8197;51.664;7.114;2024-01-16T19:56:12;29.40;;;7.93;;
16181;SDS011;8197;51.664;7.114;2024-01-16T20:01:15;40.87;;;10.93;;
16181;SDS011;8197;51.664;7.114;2024-01-16T20:06:18;31.63;;;8.47;;
16181;SDS011;8197;51.664;7.114;2024-01-16T20:11:26;34.60;;;9.80;;
16181;SDS011;8197;51.664;7.114;2024-01-16T20:16:30;26.83;;;7.50;;
16181;SDS011;8197;51.664;7.114;2024-01-16T20:21:34;25.47;;;6.63;;
16181;SDS011;8197;51.664;7.114;2024-01-16T20:26:39;32.80;;;9.60;;
16181;SDS011;8197;51.664;7.114;2024-01-16T20:31:42;23.70;;;6.53;;
16181;SDS011;8197;51.664;7.114;2024-01-16T20:36:46;32.93;;;7.90;;
16181;SDS011;8197;51.664;7.114;2024-01-16T20:41:54;24.10;;;6.43;;
16181;SDS011;8197;51.664;7.114;2024-01-16T20:46:57;30.53;;;6.80;;
16181;SDS011;8197;51.664;7.114;2024-01-16T20:52:00;24.60;;;6.57;;
16181;SDS011;8197;51.664;7.114;2024-01-16T20:57:04;22.13;;;6.27;;
16181;SDS011;8197;51.664;7.114;2024-01-16T21:02:08;22.43;;;5.97;;
16181;SDS011;8197;51.664;7.114;2024-01-16T21:07:12;24.57;;;5.90;;
16181;SDS011;8197;51.664;7.114;2024-01-16T21:12:16;24.37;;;6.20;;
16181;SDS011;8197;51.664;7.114;2024-01-16T21:17:19;28.80;;;6.37;;
16181;SDS011;8197;51.664;7.114;2024-01-16T21:22:23;23.00;;;6.10;;
16181;SDS011;8197;51.664;7.114;2024-01-16T21:27:38;26.50;;;6.53;;
16181;SDS011;8197;51.664;7.114;2024-01-16T21:32:40;23.33;;;6.03;;
16181;SDS011;8197;51.664;7.114;2024-01-16T21:37:44;24.07;;;5.73;;
16181;SDS011;8197;51.664;7.114;2024-01-16T21:42:48;18.30;;;5.07;;
16181;SDS011;8197;51.664;7.114;2024-01-16T21:47:51;23.10;;;5.17;;
16181;SDS011;8197;51.664;7.114;2024-01-16T21:52:54;25.30;;;6.50;;
16181;SDS011;8197;51.664;7.114;2024-01-16T21:57:58;33.83;;;5.40;;
16181;SDS011;8197;51.664;7.114;2024-01-16T22:03:01;26.07;;;5.37;;
16181;SDS011;8197;51.664;7.114;2024-01-16T22:08:05;21.40;;;5.70;;
16181;SDS011;8197;51.664;7.114;2024-01-16T22:13:10;20.70;;;5.30;;
16181;SDS011;8197;51.664;7.114;2024-01-16T22:18:13;24.43;;;5.13;;
16181;SDS011;8197;51.664;7.114;2024-01-16T22:23:16;21.63;;;4.70;;
16181;SDS011;8197;51.664;7.114;2024-01-16T22:28:20;24.73;;;6.27;;
16181;SDS011;8197;51.664;7.114;2024-01-16T22:33:23;23.70;;;4.70;;
16181;SDS011;8197;51.664;7.114;2024-01-16T22:38:28;25.47;;;4.50;;
16181;SDS011;8197;51.664;7.114;2024-01-16T22:43:33;24.30;;;5.10;;
16181;SDS011;8197;51.664;7.114;2024-01-16T22:48:36;19.50;;;4.63;;
16181;SDS011;8197;51.664;7.114;2024-01-16T22:53:39;24.50;;;5.30;;
16181;SDS011;8197;51.664;7.114;2024-01-16T22:58:45;20.93;;;5.07;;
16181;SDS011;8197;51.664;7.114;2024-01-16T23:03:48;25.20;;;5.30;;
16181;SDS011;8197;51.664;7.114;2024-01-16T23:08:54;27.53;;;5.30;;
16181;SDS011;8197;51.664;7.114;2024-01-16T23:13:59;21.13;;;5.80;;
16181;SDS011;8197;51.664;7.114;2024-01-16T23:19:03;27.17;;;4.80;;
16181;SDS011;8197;51.664;7.114;2024-01-16T23:24:06;24.13;;;5.17;;
16181;SDS011;8197;51.664;7.114;2024-01-16T23:29:10;18.17;;;4.00;;
16181;SDS011;8197;51.664;7.114;2024-01-16T23:34:13;24.37;;;5.20;;
16181;SDS011;8197;51.664;7.114;2024-01-16T23:39:16;22.30;;;5.07;;
16181;SDS011;8197;51.664;7.114;2024-01-16T23:44:20;20.83;;;4.50;;
16181;SDS011;8197;51.664;7.114;2024-01-16T23:49:23;20.93;;;4.70;;
16181;SDS011;8197;51.664;7.114;2024-01-16T23:54:26;20.23;;;5.60;;
16181;SDS011;8197;51.664;7.114;2024-01-16T23:59:31;21.03;;;5.27;;
